TimeEDT,TemperatureF,Dew PointF,Humidity,Sea Level PressureIn,VisibilityMPH,Wind Direction,Wind SpeedMPH,Gust SpeedMPH,PrecipitationIn,Events,Conditions,WindDirDegrees,DateUTC
12:53 AM,75.9,73.0,91,30.14,10.0,ENE,8.1,-,N/A,,Clear,60,2012-10-04 04:53:00
1:53 AM,75.9,73.0,91,30.12,10.0,NE,4.6,-,N/A,,Clear,50,2012-10-04 05:53:00
2:53 AM,75.9,73.0,91,30.10,10.0,ENE,8.1,-,N/A,,Clear,60,2012-10-04 06:53:00
3:53 AM,75.9,73.9,94,30.09,10.0,ENE,9.2,-,N/A,,Clear,70,2012-10-04 07:53:00
4:53 AM,75.9,75.0,97,30.10,10.0,ENE,5.8,-,N/A,,Clear,60,2012-10-04 08:53:00
5:53 AM,77.0,75.0,94,30.10,9.0,ENE,6.9,-,N/A,,Clear,70,2012-10-04 09:53:00
6:53 AM,75.9,75.0,97,30.12,9.0,East,5.8,-,N/A,,Clear,80,2012-10-04 10:53:00
7:53 AM,77.0,75.9,96,30.12,7.0,East,5.8,-,N/A,,Clear,80,2012-10-04 11:53:00
8:44 AM,80.6,77.0,89,30.14,8.0,NE,5.8,-,N/A,,Partly Cloudy,50,2012-10-04 12:44:00
8:53 AM,80.1,77.0,90,30.14,8.0,ENE,8.1,-,N/A,,Clear,60,2012-10-04 12:53:00
9:53 AM,84.0,78.1,82,30.14,10.0,East,8.1,-,N/A,,Partly Cloudy,90,2012-10-04 13:53:00
10:53 AM,86.0,75.9,72,30.14,10.0,ESE,6.9,-,N/A,,Scattered Clouds,120,2012-10-04 14:53:00
11:53 AM,88.0,75.9,67,30.14,10.0,East,11.5,-,N/A,,Scattered Clouds,100,2012-10-04 15:53:00
12:53 PM,89.1,75.9,65,30.13,10.0,SE,10.4,-,N/A,,Scattered Clouds,130,2012-10-04 16:53:00
1:53 PM,88.0,75.0,65,30.10,10.0,South,5.8,-,N/A,,Mostly Cloudy,170,2012-10-04 17:53:00
2:07 PM,87.8,73.4,62,30.09,10.0,ESE,15.0,-,N/A,Thunderstorm,Thunderstorm,120,2012-10-04 18:07:00
2:28 PM,89.6,73.4,59,30.08,10.0,ESE,9.2,-,0.02,,Mostly Cloudy,110,2012-10-04 18:28:00
2:39 PM,89.6,73.4,59,30.09,10.0,East,8.1,19.6,0.02,Thunderstorm,Mostly Cloudy,100,2012-10-04 18:39:00
2:53 PM,86.0,73.9,67,30.08,10.0,East,8.1,-,N/A,Thunderstorm,Mostly Cloudy,90,2012-10-04 18:53:00
3:01 PM,86.0,75.2,70,30.08,10.0,ESE,8.1,-,N/A,,Partly Cloudy,110,2012-10-04 19:01:00
3:33 PM,86.0,73.4,66,30.07,10.0,ENE,3.5,-,N/A,Thunderstorm,Thunderstorm,70,2012-10-04 19:33:00
3:48 PM,86.0,73.4,66,30.08,-9999.0,Calm,Calm,-,N/A,,Mostly Cloudy,0,2012-10-04 19:48:00
3:53 PM,86.0,75.0,70,30.07,10.0,West,5.8,-,N/A,,Mostly Cloudy,260,2012-10-04 19:53:00
4:53 PM,89.1,75.0,63,30.06,10.0,North,3.5,-,N/A,,Clear,360,2012-10-04 20:53:00
5:53 PM,87.1,75.9,69,30.06,10.0,North,4.6,-,N/A,,Clear,10,2012-10-04 21:53:00
6:53 PM,84.0,73.9,72,30.08,10.0,NNE,4.6,-,N/A,,Clear,20,2012-10-04 22:53:00
7:22 PM,82.4,73.4,74,30.08,10.0,NNE,9.2,-,N/A,,Partly Cloudy,30,2012-10-04 23:22:00
7:53 PM,80.1,73.0,79,30.09,10.0,NNE,5.8,-,N/A,,Clear,20,2012-10-04 23:53:00
8:53 PM,79.0,73.9,84,30.10,10.0,NNE,5.8,-,N/A,,Clear,30,2012-10-05 00:53:00
9:53 PM,78.1,73.9,87,30.11,10.0,NNE,4.6,-,N/A,,Clear,30,2012-10-05 01:53:00
10:53 PM,77.0,73.9,90,30.12,10.0,ENE,8.1,-,N/A,,Clear,60,2012-10-05 02:53:00
11:53 PM,77.0,73.9,90,30.11,10.0,ENE,6.9,-,N/A,,Clear,70,2012-10-05 03:53:00